Time;durP1;ratioP1;P1;durP2;ratioP2;P2;SDS_P1;SDS_P2;PMS_P1;PMS_P2;Temp;Humidity;BMP_temperature;BMP_pressure;BME280_temperature;BME280_humidity;BME280_pressure;Samples;Min_cycle;Max_cycle;Signal;HPM_P1;HPM_P2
2023/08/04 00:00:14;;;;;;;2.50;1.50;;;;;;;16.76;100.00;94671.69;5018936;28;20030;-63
2023/08/04 00:02:40;;;;;;;4.05;1.30;;;;;;;16.71;100.00;94667.00;5041996;28;20038;-63
2023/08/04 00:05:07;;;;;;;2.97;1.65;;;;;;;16.77;100.00;94676.00;5019738;28;20410;-63
2023/08/04 00:07:33;;;;;;;1.55;1.40;;;;;;;16.73;100.00;94686.19;5014368;28;20466;-63
2023/08/04 00:09:58;;;;;;;1.55;1.38;;;;;;;16.67;100.00;94718.91;5015731;28;20026;-63
2023/08/04 00:12:24;;;;;;;4.60;1.48;;;;;;;16.54;100.00;94730.34;5014473;28;20025;-63
2023/08/04 00:14:49;;;;;;;4.50;1.50;;;;;;;16.44;100.00;94759.13;5017747;28;20032;-63
2023/08/04 00:17:16;;;;;;;1.92;1.40;;;;;;;16.45;100.00;94772.22;5014521;28;20034;-63
2023/08/04 00:19:42;;;;;;;2.42;1.27;;;;;;;16.33;100.00;94798.56;5014652;28;20050;-64
2023/08/04 00:22:07;;;;;;;1.63;1.25;;;;;;;16.28;100.00;94785.06;5018620;28;20044;-64
2023/08/04 00:24:33;;;;;;;1.77;1.30;;;;;;;16.23;100.00;94784.81;5018911;28;20474;-63
2023/08/04 00:27:00;;;;;;;1.48;1.30;;;;;;;16.11;100.00;94776.63;5018567;28;20180;-63
2023/08/04 00:29:25;;;;;;;2.38;1.25;;;;;;;16.09;100.00;94772.53;5019033;28;20033;-63
2023/08/04 00:31:51;;;;;;;1.23;1.23;;;;;;;16.08;100.00;94770.91;5017886;28;20025;-63
2023/08/04 00:34:16;;;;;;;3.47;1.35;;;;;;;16.06;100.00;94757.81;5014684;28;20478;-63
2023/08/04 00:36:44;;;;;;;1.60;1.30;;;;;;;16.00;100.00;94753.31;5014236;28;20032;-63
2023/08/04 00:39:10;;;;;;;3.85;1.80;;;;;;;15.89;100.00;94750.19;5017260;28;20037;-63
2023/08/04 00:41:35;;;;;;;1.45;1.35;;;;;;;15.92;100.00;94745.53;5016188;28;20104;-63
2023/08/04 00:44:01;;;;;;;2.92;1.40;;;;;;;15.99;100.00;94741.88;5021468;28;20609;-63
2023/08/04 00:46:29;;;;;;;1.33;1.17;;;;;;;15.97;100.00;94727.16;5028748;28;20152;-63
2023/08/04 00:48:56;;;;;;;2.45;1.50;;;;;;;15.97;100.00;94713.91;5019099;28;20513;-63
2023/08/04 00:51:22;;;;;;;3.75;1.50;;;;;;;15.83;100.00;94710.34;5017486;28;20022;-63
2023/08/04 00:53:47;;;;;;;1.50;1.40;;;;;;;15.74;100.00;94697.25;5020820;28;20036;-63
2023/08/04 00:56:13;;;;;;;3.00;1.60;;;;;;;15.70;100.00;94687.25;5018383;28;20021;-63
2023/08/04 00:58:38;;;;;;;3.92;1.20;;;;;;;15.69;100.00;94659.88;5022379;28;20029;-63
2023/08/04 01:01:03;;;;;;;3.25;1.38;;;;;;;15.76;100.00;94652.75;5021302;28;20053;-63
2023/08/04 01:03:29;;;;;;;1.60;1.30;;;;;;;15.83;100.00;94644.00;5047288;28;20089;-63
2023/08/04 01:06:36;;;;;;;1.30;1.20;;;;;;;15.87;100.00;94624.00;5021994;28;20037;-63
2023/08/04 01:09:20;;;;;;;1.10;1.10;;;;;;;15.89;100.00;94620.16;5001433;28;20029;-63
2023/08/04 01:12:07;;;;;;;4.13;1.33;;;;;;;15.86;100.00;94633.78;5022398;28;20044;-63
2023/08/04 01:14:34;;;;;;;1.70;1.20;;;;;;;15.81;100.00;94638.88;5044786;28;20017;-63
2023/08/04 01:17:21;;;;;;;1.58;1.23;;;;;;;15.83;100.00;94641.34;5019913;28;20108;-63
2023/08/04 01:19:46;;;;;;;1.30;1.23;;;;;;;15.73;100.00;94650.50;5025212;28;20021;-63
2023/08/04 01:22:12;;;;;;;2.85;1.20;;;;;;;15.73;100.00;94660.31;5023677;28;20032;-63
2023/08/04 01:24:37;;;;;;;2.33;1.33;;;;;;;15.72;100.00;94659.47;5023061;28;20030;-63
2023/08/04 01:27:04;;;;;;;3.08;1.40;;;;;;;15.70;100.00;94650.91;5036669;28;20090;-63
2023/08/04 01:29:30;;;;;;;2.45;1.50;;;;;;;15.75;100.00;94648.47;5015640;28;20541;-64
2023/08/04 01:31:57;;;;;;;2.28;1.30;;;;;;;15.71;100.00;94649.09;5018926;28;20134;-64
2023/08/04 01:34:22;;;;;;;1.20;1.10;;;;;;;15.67;100.00;94653.13;5021417;28;20025;-63
2023/08/04 01:36:48;;;;;;;1.10;1.10;;;;;;;15.59;100.00;94639.03;5021692;28;20028;-63
2023/08/04 01:39:13;;;;;;;1.30;1.20;;;;;;;15.57;100.00;94605.75;5019648;28;20029;-63
2023/08/04 01:41:39;;;;;;;1.88;1.40;;;;;;;15.63;100.00;94591.72;5018547;28;20032;-64
2023/08/04 01:44:04;;;;;;;2.35;1.40;;;;;;;15.70;100.00;94581.91;5020799;28;20018;-63
2023/08/04 01:46:30;;;;;;;1.08;1.00;;;;;;;15.76;100.00;94593.56;5015129;28;20044;-63
2023/08/04 01:48:55;;;;;;;3.33;1.35;;;;;;;15.80;100.00;94600.09;5018007;28;20073;-63
2023/08/04 01:51:20;;;;;;;1.67;1.25;;;;;;;15.78;100.00;94603.97;5021594;28;20036;-63
2023/08/04 01:53:46;;;;;;;2.95;1.33;;;;;;;15.72;100.00;94624.97;5018183;28;20034;-63
2023/08/04 01:56:11;;;;;;;2.03;1.20;;;;;;;15.68;100.00;94630.88;5045080;28;20033;-63
2023/08/04 01:58:36;;;;;;;0.98;0.98;;;;;;;15.68;100.00;94637.03;5032583;28;20130;-63
2023/08/04 02:01:02;;;;;;;1.50;1.40;;;;;;;15.69;100.00;94643.97;5018494;28;20030;-63
2023/08/04 02:03:27;;;;;;;1.20;1.10;;;;;;;15.63;100.00;94634.16;5019948;28;20069;-63
2023/08/04 02:05:53;;;;;;;2.10;1.30;;;;;;;15.66;100.00;94630.28;5046696;28;20388;-63
2023/08/04 02:08:18;;;;;;;4.47;1.40;;;;;;;15.67;100.00;94624.78;5022950;28;20557;-64
2023/08/04 02:10:50;;;;;;;1.85;1.30;;;;;;;15.66;100.00;94601.09;5045575;28;20041;-63
2023/08/04 02:13:16;;;;;;;1.30;1.20;;;;;;;15.64;100.00;94588.03;5041485;28;20041;-63
2023/08/04 02:15:41;;;;;;;1.35;1.25;;;;;;;15.61;100.00;94577.84;5021731;28;20025;-63
2023/08/04 02:18:06;;;;;;;1.02;1.00;;;;;;;15.65;100.00;94563.16;5020358;28;20072;-63
2023/08/04 02:20:32;;;;;;;1.60;1.30;;;;;;;15.66;100.00;94524.16;5017381;28;20559;-63
2023/08/04 02:22:57;;;;;;;2.22;1.38;;;;;;;15.68;100.00;94524.75;5019454;28;20033;-63
2023/08/04 02:25:22;;;;;;;1.70;1.40;;;;;;;15.71;100.00;94538.44;5046963;28;20504;-63
2023/08/04 02:27:48;;;;;;;1.52;1.30;;;;;;;15.67;100.00;94554.97;5019445;28;20088;-63
2023/08/04 02:30:13;;;;;;;1.25;1.25;;;;;;;15.59;100.00;94553.34;5021717;28;20435;-63
2023/08/04 02:32:39;;;;;;;2.95;1.20;;;;;;;15.54;100.00;94518.63;5020110;28;20026;-63
2023/08/04 02:35:05;;;;;;;1.77;1.42;;;;;;;15.49;100.00;94500.69;5020249;28;20081;-63
2023/08/04 02:37:30;;;;;;;4.25;1.40;;;;;;;15.49;100.00;94486.59;5021396;28;20708;-63
2023/08/04 02:39:55;;;;;;;3.00;1.30;;;;;;;15.51;100.00;94472.13;5020990;28;20557;-63
2023/08/04 02:42:21;;;;;;;1.98;1.42;;;;;;;15.51;100.00;94466.81;5018759;28;20109;-63
2023/08/04 02:44:46;;;;;;;2.13;1.45;;;;;;;15.58;100.00;94464.16;5016910;28;20474;-63
2023/08/04 02:47:11;;;;;;;1.75;1.33;;;;;;;15.49;100.00;94505.16;5019347;28;20718;-63
2023/08/04 02:49:37;;;;;;;1.42;1.40;;;;;;;15.44;100.00;94506.59;5017617;28;20029;-63
2023/08/04 02:52:04;;;;;;;2.70;1.70;;;;;;;15.54;100.00;94489.44;5019568;28;20052;-64
2023/08/04 02:54:30;;;;;;;1.50;1.40;;;;;;;15.61;100.00;94479.69;5044398;28;20079;-63
2023/08/04 02:56:55;;;;;;;1.60;1.50;;;;;;;15.56;100.00;94496.19;5018852;28;20030;-63
2023/08/04 02:59:20;;;;;;;1.52;1.40;;;;;;;15.62;100.00;94494.56;5018885;28;20036;-63
2023/08/04 03:01:46;;;;;;;3.40;1.42;;;;;;;15.63;100.00;94493.56;5021162;28;20028;-63
2023/08/04 03:04:12;;;;;;;1.65;1.30;;;;;;;15.59;100.00;94500.28;5017749;28;20034;-63
2023/08/04 03:06:38;;;;;;;1.40;1.30;;;;;;;15.65;100.00;94503.94;5017623;28;20518;-63
2023/08/04 03:09:04;;;;;;;4.25;1.58;;;;;;;15.58;100.00;94510.06;5018737;28;20554;-63
2023/08/04 03:11:29;;;;;;;2.55;1.38;;;;;;;15.51;100.00;94519.03;5019921;28;20442;-63
2023/08/04 03:13:54;;;;;;;1.58;1.48;;;;;;;15.43;100.00;94514.72;5019311;28;20071;-64
2023/08/04 03:16:20;;;;;;;2.75;1.52;;;;;;;15.43;100.00;94512.06;5020173;28;20029;-63
2023/08/04 03:18:45;;;;;;;1.83;1.52;;;;;;;15.38;100.00;94520.66;5043513;28;20087;-63
2023/08/04 03:21:11;;;;;;;1.50;1.40;;;;;;;15.40;100.00;94513.31;5021135;28;20026;-63
2023/08/04 03:23:36;;;;;;;2.78;1.40;;;;;;;15.46;100.00;94512.50;5021836;28;20025;-63
2023/08/04 03:26:01;;;;;;;1.85;1.60;;;;;;;15.42;100.00;94513.94;5023106;28;20486;-63
2023/08/04 03:28:27;;;;;;;5.30;1.60;;;;;;;15.42;100.00;94508.63;5018797;28;20458;-63
2023/08/04 03:30:52;;;;;;;2.25;1.52;;;;;;;15.45;100.00;94500.25;5019606;28;20440;-63
2023/08/04 03:33:19;;;;;;;4.50;1.70;;;;;;;15.47;100.00;94492.91;5018408;28;20095;-63
2023/08/04 03:35:44;;;;;;;1.60;1.50;;;;;;;15.47;100.00;94492.91;5041129;28;20084;-63
2023/08/04 03:38:11;;;;;;;2.38;1.73;;;;;;;15.45;100.00;94492.31;5022326;28;20037;-64
2023/08/04 03:40:37;;;;;;;1.50;1.40;;;;;;;15.39;100.00;94505.53;5022692;28;20570;-64
2023/08/04 03:43:02;;;;;;;1.60;1.50;;;;;;;15.36;100.00;94522.66;5019518;28;20108;-63
2023/08/04 03:45:27;;;;;;;1.83;1.58;;;;;;;15.32;100.00;94540.00;5017848;28;20041;-64
2023/08/04 03:47:53;;;;;;;1.65;1.42;;;;;;;15.24;100.00;94550.78;5014056;28;20026;-64
2023/08/04 03:50:18;;;;;;;1.73;1.63;;;;;;;15.23;100.00;94567.72;5019358;28;20064;-64
2023/08/04 03:52:44;;;;;;;2.08;1.77;;;;;;;15.19;100.00;94559.34;5018485;28;20142;-64
2023/08/04 03:55:09;;;;;;;1.50;1.40;;;;;;;15.21;100.00;94556.50;5014278;28;20061;-65
2023/08/04 03:57:35;;;;;;;3.00;1.70;;;;;;;15.23;100.00;94560.56;5018175;28;20582;-65
2023/08/04 04:00:01;;;;;;;1.73;1.63;;;;;;;15.24;100.00;94569.34;5019471;28;20022;-65
2023/08/04 04:02:26;;;;;;;2.63;1.95;;;;;;;15.24;100.00;94574.66;5015113;28;20036;-64
2023/08/04 04:04:51;;;;;;;3.53;1.67;;;;;;;15.21;100.00;94567.09;5016049;28;20498;-65
2023/08/04 04:07:17;;;;;;;1.60;1.50;;;;;;;15.20;100.00;94560.16;5015773;28;20112;-64
2023/08/04 04:09:42;;;;;;;1.60;1.50;;;;;;;15.23;100.00;94562.41;5016245;28;20499;-65
2023/08/04 04:12:08;;;;;;;2.03;1.52;;;;;;;15.18;100.00;94542.63;5025225;28;20033;-64
2023/08/04 04:14:33;;;;;;;2.35;1.33;;;;;;;15.13;100.00;94545.03;5017519;28;20361;-63
2023/08/04 04:16:59;;;;;;;1.85;1.60;;;;;;;15.16;100.00;94543.81;5016419;28;20032;-64
2023/08/04 04:19:24;;;;;;;1.40;1.30;;;;;;;15.16;100.00;94528.75;5017895;28;20039;-64
2023/08/04 04:21:50;;;;;;;1.55;1.45;;;;;;;15.21;100.00;94533.44;5015104;28;20026;-64
2023/08/04 04:24:16;;;;;;;1.80;1.60;;;;;;;15.25;100.00;94532.03;5019043;28;20041;-64
2023/08/04 04:26:41;;;;;;;2.63;1.58;;;;;;;15.30;100.00;94536.72;4981469;28;1179086;-64
2023/08/04 04:29:07;;;;;;;2.33;1.67;;;;;;;15.22;100.00;94544.88;5026048;28;20518;-63
2023/08/04 04:31:32;;;;;;;2.55;1.55;;;;;;;15.18;100.00;94547.94;5020922;28;20026;-63
2023/08/04 04:33:57;;;;;;;1.80;1.70;;;;;;;15.20;100.00;94534.44;5017658;28;20037;-64
2023/08/04 04:36:23;;;;;;;2.33;1.60;;;;;;;15.16;100.00;94544.66;5020566;28;20018;-66
2023/08/04 04:38:48;;;;;;;5.43;1.63;;;;;;;15.13;100.00;94542.38;5019799;28;20109;-64
2023/08/04 04:41:13;;;;;;;3.45;1.40;;;;;;;15.11;100.00;94555.00;5018605;28;20026;-64
2023/08/04 04:43:39;;;;;;;2.25;1.33;;;;;;;15.13;100.00;94566.22;5021182;28;20375;-63
2023/08/04 04:46:05;;;;;;;1.63;1.42;;;;;;;15.19;100.00;94583.19;5015939;28;20410;-64
2023/08/04 04:48:30;;;;;;;2.15;1.60;;;;;;;15.17;100.00;94601.97;5002882;28;20449;-64
2023/08/04 04:50:55;;;;;;;1.52;1.42;;;;;;;15.17;100.00;94609.91;5017414;28;20465;-64
2023/08/04 04:53:21;;;;;;;1.38;1.27;;;;;;;15.15;100.00;94608.47;5019587;28;20474;-63
2023/08/04 04:55:47;;;;;;;1.15;1.10;;;;;;;15.15;100.00;94621.72;5019829;28;20041;-63
2023/08/04 04:58:12;;;;;;;2.60;1.23;;;;;;;15.15;100.00;94624.38;5017112;28;20026;-63
2023/08/04 05:00:38;;;;;;;1.30;1.20;;;;;;;15.11;100.00;94631.88;5017021;28;20458;-64
2023/08/04 05:03:06;;;;;;;1.55;1.30;;;;;;;15.15;100.00;94627.84;5015058;28;20026;-63
2023/08/04 05:05:35;;;;;;;1.45;1.30;;;;;;;15.14;100.00;94631.53;5016371;28;20088;-64
2023/08/04 05:08:01;;;;;;;1.50;1.35;;;;;;;15.15;100.00;94635.81;5018177;28;20592;-63
2023/08/04 05:10:26;;;;;;;2.40;1.38;;;;;;;15.14;100.00;94631.53;5018036;28;20080;-63
2023/08/04 05:12:52;;;;;;;1.60;1.50;;;;;;;15.17;100.00;94632.94;5015231;28;20053;-64
2023/08/04 05:15:17;;;;;;;1.40;1.40;;;;;;;15.22;100.00;94619.09;5015449;28;20109;-63
2023/08/04 05:17:44;;;;;;;1.40;1.30;;;;;;;15.22;100.00;94611.16;5017053;28;20116;-63
2023/08/04 05:20:10;;;;;;;1.75;1.23;;;;;;;15.18;100.00;94595.66;5018463;28;20497;-64
2023/08/04 05:22:36;;;;;;;1.00;1.00;;;;;;;15.15;100.00;94598.69;5021441;28;20068;-63
2023/08/04 05:25:01;;;;;;;1.98;1.35;;;;;;;15.18;100.00;94606.25;5018734;28;20053;-63
2023/08/04 05:27:27;;;;;;;1.80;1.30;;;;;;;15.15;100.00;94605.81;5046656;28;20049;-64
2023/08/04 05:29:52;;;;;;;2.17;1.38;;;;;;;15.13;100.00;94605.19;5017391;28;20518;-64
2023/08/04 05:32:17;;;;;;;1.42;1.33;;;;;;;15.14;100.00;94593.56;5022270;28;20026;-63
2023/08/04 05:34:43;;;;;;;0.98;0.98;;;;;;;15.17;100.00;94596.66;5023447;28;20105;-63
2023/08/04 05:37:08;;;;;;;4.22;1.33;;;;;;;15.15;100.00;94585.44;5021532;28;20076;-64
2023/08/04 05:39:34;;;;;;;2.45;1.27;;;;;;;15.13;100.00;94590.09;5021922;28;20064;-64
2023/08/04 05:41:59;;;;;;;1.60;1.48;;;;;;;15.13;100.00;94587.44;5020144;28;20022;-63
2023/08/04 05:44:24;;;;;;;1.48;1.27;;;;;;;15.16;100.00;94584.41;5020809;28;20080;-63
2023/08/04 05:46:50;;;;;;;1.83;1.20;;;;;;;15.30;100.00;94572.03;5022979;28;20033;-63
2023/08/04 05:49:15;;;;;;;3.25;1.58;;;;;;;15.44;100.00;94566.75;5021612;28;20037;-63
2023/08/04 05:51:41;;;;;;;1.17;1.05;;;;;;;15.57;100.00;94571.28;5022456;28;20068;-64
2023/08/04 05:54:06;;;;;;;1.48;1.38;;;;;;;15.57;100.00;94569.44;5023827;28;20087;-64
2023/08/04 05:56:31;;;;;;;1.60;1.40;;;;;;;15.63;100.00;94567.84;5022626;28;20030;-64
2023/08/04 05:58:57;;;;;;;1.65;1.33;;;;;;;15.68;100.00;94570.69;5019184;28;20029;-63
2023/08/04 06:01:23;;;;;;;3.25;1.40;;;;;;;15.69;100.00;94579.47;5023598;28;20029;-63
2023/08/04 06:03:48;;;;;;;1.50;1.40;;;;;;;15.69;100.00;94590.91;5037213;28;20031;-63
2023/08/04 06:06:14;;;;;;;1.33;1.23;;;;;;;15.60;100.00;94589.47;5025165;28;20649;-63
2023/08/04 06:08:39;;;;;;;2.20;1.35;;;;;;;15.47;100.00;94596.34;5021849;28;20106;-63
2023/08/04 06:11:05;;;;;;;4.32;1.40;;;;;;;15.60;100.00;94576.19;5020778;28;20032;-63
2023/08/04 06:13:30;;;;;;;1.75;1.30;;;;;;;15.78;100.00;94588.88;5021543;28;20033;-63
2023/08/04 06:15:55;;;;;;;2.25;1.35;;;;;;;15.79;100.00;94618.88;5040446;28;20533;-64
2023/08/04 06:18:21;;;;;;;1.08;1.00;;;;;;;15.88;100.00;94637.09;5020739;28;20109;-63
2023/08/04 06:20:47;;;;;;;4.32;1.15;;;;;;;15.90;100.00;94644.88;5018900;28;20033;-63
2023/08/04 06:23:13;;;;;;;2.08;1.20;;;;;;;15.89;100.00;94653.84;5018301;28;20120;-63
2023/08/04 06:25:39;;;;;;;2.97;1.20;;;;;;;15.84;100.00;94649.09;5019256;28;20517;-63
2023/08/04 06:28:04;;;;;;;1.15;1.05;;;;;;;15.95;100.00;94668.16;5042363;28;20042;-63
2023/08/04 06:30:30;;;;;;;1.05;1.05;;;;;;;15.92;100.00;94674.66;5020389;28;20022;-63
2023/08/04 06:32:56;;;;;;;1.27;1.20;;;;;;;16.09;100.00;94676.97;5020079;28;20064;-63
2023/08/04 06:35:21;;;;;;;1.58;1.42;;;;;;;16.06;100.00;94690.66;5020874;28;20034;-64
2023/08/04 06:37:46;;;;;;;1.13;1.00;;;;;;;16.03;100.00;94676.75;5023148;28;20053;-64
2023/08/04 06:40:12;;;;;;;1.25;1.13;;;;;;;16.13;100.00;94675.53;5024883;28;20076;-64
2023/08/04 06:42:37;;;;;;;1.58;1.23;;;;;;;16.31;100.00;94677.59;5024753;28;20063;-63
2023/08/04 06:45:03;;;;;;;1.70;1.20;;;;;;;16.42;100.00;94690.28;5022244;28;20483;-64
2023/08/04 06:47:29;;;;;;;1.20;1.10;;;;;;;16.54;100.00;94692.31;5023026;28;20076;-64
2023/08/04 06:49:54;;;;;;;2.10;1.15;;;;;;;16.69;100.00;94700.09;5018691;28;20113;-63
2023/08/04 06:52:19;;;;;;;2.53;1.00;;;;;;;16.82;100.00;94694.78;5022118;28;20026;-64
2023/08/04 06:54:45;;;;;;;1.52;1.20;;;;;;;16.94;100.00;94692.31;5019271;28;20061;-64
2023/08/04 06:57:10;;;;;;;3.95;1.05;;;;;;;16.96;100.00;94692.94;5020565;28;20052;-64
2023/08/04 06:59:36;;;;;;;2.20;1.05;;;;;;;17.03;100.00;94690.31;5016565;28;20025;-64
2023/08/04 07:02:01;;;;;;;1.20;1.10;;;;;;;17.20;100.00;94684.56;5017969;28;20545;-64
2023/08/04 07:04:27;;;;;;;1.17;1.10;;;;;;;17.28;100.00;94649.75;5022393;28;20028;-64
2023/08/04 07:06:54;;;;;;;1.30;1.20;;;;;;;17.50;100.00;94646.78;5019087;28;20032;-63
2023/08/04 07:09:19;;;;;;;2.25;0.90;;;;;;;17.89;100.00;94618.38;5019325;28;20055;-63
2023/08/04 07:11:45;;;;;;;1.08;0.90;;;;;;;18.04;100.00;94604.78;5018599;28;20025;-63
2023/08/04 07:14:10;;;;;;;0.88;0.88;;;;;;;17.94;100.00;94591.09;5018666;28;20029;-63
2023/08/04 07:16:36;;;;;;;1.23;1.00;;;;;;;17.93;100.00;94587.59;5022808;28;20030;-63
2023/08/04 07:19:01;;;;;;;1.58;0.80;;;;;;;17.97;100.00;94564.03;5018134;28;20093;-63
2023/08/04 07:21:26;;;;;;;1.00;0.80;;;;;;;17.90;100.00;94545.44;5047705;28;20021;-63
2023/08/04 07:23:52;;;;;;;1.02;0.90;;;;;;;17.91;100.00;94541.75;5020611;28;20037;-63
2023/08/04 07:26:17;;;;;;;1.52;1.13;;;;;;;17.96;100.00;94517.94;5024097;28;20057;-64
2023/08/04 07:28:42;;;;;;;1.15;1.05;;;;;;;17.98;100.00;94489.25;5046037;28;20026;-63
2023/08/04 07:31:09;;;;;;;0.85;0.82;;;;;;;18.02;100.00;94473.69;5024150;28;20410;-63
2023/08/04 07:33:36;;;;;;;0.95;0.80;;;;;;;18.10;100.00;94459.28;5018817;28;20100;-63
2023/08/04 07:36:03;;;;;;;1.63;1.42;;;;;;;18.08;100.00;94461.38;5019539;28;20133;-63
2023/08/04 07:38:29;;;;;;;0.70;0.70;;;;;;;18.06;100.00;94453.59;5016725;28;20038;-63
2023/08/04 07:40:55;;;;;;;1.63;1.10;;;;;;;18.02;100.00;94450.56;5019139;28;20025;-63
2023/08/04 07:43:20;;;;;;;0.90;0.90;;;;;;;17.99;100.00;94450.94;5017863;28;20037;-63
2023/08/04 07:45:46;;;;;;;1.17;0.70;;;;;;;17.92;100.00;94442.22;5014223;28;20026;-64
2023/08/04 07:48:11;;;;;;;1.25;0.95;;;;;;;17.88;100.00;94430.38;5019720;28;20084;-63
2023/08/04 07:50:39;;;;;;;0.70;0.70;;;;;;;17.80;100.00;94426.13;5019008;28;20029;-63
2023/08/04 07:53:05;;;;;;;1.40;1.10;;;;;;;17.78;100.00;94419.38;5021259;28;20128;-64
2023/08/04 07:55:36;;;;;;;1.10;1.00;;;;;;;17.81;100.00;94413.66;5012689;28;20056;-63
2023/08/04 07:58:05;;;;;;;1.77;1.02;;;;;;;17.82;100.00;94416.09;5012398;28;20574;-63
2023/08/04 08:00:30;;;;;;;1.77;0.85;;;;;;;17.98;100.00;94404.06;5011161;28;20549;-63
2023/08/04 08:02:56;;;;;;;3.20;0.93;;;;;;;18.10;100.00;94390.84;5012882;28;20034;-63
2023/08/04 08:05:22;;;;;;;0.93;0.90;;;;;;;18.02;100.00;94375.19;5013108;28;20088;-63
2023/08/04 08:07:47;;;;;;;1.95;1.05;;;;;;;18.20;100.00;94363.72;5013230;28;20084;-63
2023/08/04 08:10:13;;;;;;;0.93;0.80;;;;;;;18.89;100.00;94312.00;5012965;28;20029;-63
2023/08/04 08:12:38;;;;;;;3.95;0.77;;;;;;;19.83;100.00;94233.03;5013433;28;20029;-64
2023/08/04 08:15:05;;;;;;;0.75;0.75;;;;;;;20.64;100.00;94163.72;5013065;28;20033;-63
2023/08/04 08:17:31;;;;;;;1.08;0.82;;;;;;;21.24;100.00;94140.03;5013625;28;20472;-64
2023/08/04 08:19:56;;;;;;;0.80;0.80;;;;;;;21.76;100.00;94109.41;5015150;28;20030;-64
2023/08/04 08:22:21;;;;;;;0.88;0.80;;;;;;;22.06;100.00;94051.03;5013672;28;20034;-63
2023/08/04 08:24:48;;;;;;;0.60;0.60;;;;;;;22.57;100.00;94013.13;5013694;28;20083;-64
2023/08/04 08:27:13;;;;;;;0.65;0.65;;;;;;;22.88;100.00;93989.16;5013350;28;20058;-64
2023/08/04 08:29:41;;;;;;;0.70;0.70;;;;;;;22.99;100.00;93963.16;5013661;28;20049;-64
2023/08/04 08:32:07;;;;;;;1.33;0.98;;;;;;;23.45;100.00;93924.94;5013206;28;20026;-64
2023/08/04 08:34:32;;;;;;;0.70;0.70;;;;;;;23.54;100.00;93891.13;5024029;28;20029;-64
2023/08/04 08:36:58;;;;;;;1.70;0.57;;;;;;;22.72;100.00;93902.44;5013089;28;20470;-63
2023/08/04 08:39:23;;;;;;;2.08;0.68;;;;;;;21.80;100.00;93930.28;5012069;28;20518;-63
2023/08/04 08:41:49;;;;;;;1.00;0.63;;;;;;;21.42;100.00;93948.88;5012885;28;20057;-63
2023/08/04 08:44:14;;;;;;;0.65;0.65;;;;;;;20.64;100.00;93969.41;5013272;28;20403;-64
2023/08/04 08:46:40;;;;;;;0.85;0.50;;;;;;;20.12;100.00;93983.88;5012025;28;20046;-64
2023/08/04 08:49:06;;;;;;;0.60;0.60;;;;;;;19.91;100.00;94002.25;5014681;28;20025;-63
2023/08/04 08:51:34;;;;;;;1.48;0.70;;;;;;;19.81;100.00;94010.88;5013399;28;20057;-63
2023/08/04 08:54:00;;;;;;;0.60;0.60;;;;;;;19.94;100.00;94001.75;5013305;28;20056;-63
2023/08/04 08:56:26;;;;;;;0.50;0.50;;;;;;;20.62;100.00;93958.13;5013502;28;20049;-63
2023/08/04 08:58:52;;;;;;;0.75;0.75;;;;;;;21.10;100.00;93921.00;5013212;28;20159;-64
2023/08/04 09:01:19;;;;;;;0.77;0.70;;;;;;;21.88;100.00;93866.31;5014158;28;20030;-63
2023/08/04 09:03:44;;;;;;;0.95;0.50;;;;;;;22.04;100.00;93856.50;5017339;28;20104;-64
2023/08/04 09:06:09;;;;;;;1.20;0.60;;;;;;;21.79;100.00;93854.47;5017402;28;20120;-63
2023/08/04 09:08:35;;;;;;;0.60;0.60;;;;;;;22.04;100.00;93819.00;5015174;28;20744;-64
2023/08/04 09:11:00;;;;;;;0.43;0.43;;;;;;;22.79;100.00;93789.56;5016712;28;20026;-64
2023/08/04 09:13:26;;;;;;;0.57;0.57;;;;;;;23.24;100.00;93763.00;5016474;28;20026;-64
2023/08/04 09:16:00;;;;;;;0.60;0.60;;;;;;;22.65;100.00;93771.28;5016658;28;20033;-64
2023/08/04 09:18:32;;;;;;;0.60;0.60;;;;;;;21.95;100.00;93784.94;5017205;28;20041;-63
2023/08/04 09:20:59;;;;;;;0.73;0.73;;;;;;;21.40;100.00;93807.31;5016947;28;20446;-63
2023/08/04 09:23:26;;;;;;;0.63;0.63;;;;;;;21.24;100.00;93810.91;5016263;28;20037;-63
2023/08/04 09:25:55;;;;;;;0.40;0.40;;;;;;;20.52;100.00;93841.22;5015403;28;20053;-63
2023/08/04 09:28:20;;;;;;;1.35;0.65;;;;;;;20.59;100.00;93824.97;5015842;28;20080;-63
2023/08/04 09:31:06;;;;;;;0.70;0.57;;;;;;;20.43;100.00;93832.81;5016571;28;20034;-64
2023/08/04 09:33:33;;;;;;;0.70;0.70;;;;;;;20.17;100.00;93842.38;5027484;28;20053;-64
2023/08/04 09:36:02;;;;;;;0.50;0.50;;;;;;;20.08;100.00;93849.22;5015662;28;20029;-63
2023/08/04 09:38:28;;;;;;;1.55;0.55;;;;;;;19.65;100.00;93852.31;5016454;28;20053;-63
2023/08/04 09:41:06;;;;;;;0.70;0.70;;;;;;;19.14;100.00;93854.97;5016366;28;20014;-63
2023/08/04 09:43:32;;;;;;;0.40;0.40;;;;;;;19.03;100.00;93868.13;5016544;28;20450;-63
2023/08/04 09:46:02;;;;;;;0.88;0.57;;;;;;;19.06;100.00;93866.81;5016553;28;20050;-63
2023/08/04 09:48:27;;;;;;;1.00;0.50;;;;;;;19.05;100.00;93857.19;5016316;28;20018;-63
2023/08/04 09:51:07;;;;;;;1.15;0.40;;;;;;;18.71;100.00;93884.56;5016413;28;20028;-64
2023/08/04 09:53:43;;;;;;;0.50;0.50;;;;;;;18.28;100.00;93899.97;5014218;28;20047;-63
2023/08/04 09:56:10;;;;;;;0.50;0.50;;;;;;;18.07;100.00;93932.50;5016186;28;20033;-63
2023/08/04 09:58:36;;;;;;;3.53;0.93;;;;;;;17.88;100.00;93953.88;5016135;28;20026;-63
2023/08/04 10:01:03;;;;;;;1.45;0.60;;;;;;;17.52;100.00;94016.84;5016107;28;20026;-63
2023/08/04 10:03:28;;;;;;;0.50;0.50;;;;;;;17.35;100.00;94022.78;5003205;28;20037;-63
2023/08/04 10:05:59;;;;;;;0.80;0.77;;;;;;;17.20;100.00;94038.34;5010788;28;20071;-63
2023/08/04 10:08:27;;;;;;;0.60;0.60;;;;;;;16.98;100.00;94076.00;5015631;28;20025;-63
2023/08/04 10:10:54;;;;;;;3.00;0.90;;;;;;;16.80;100.00;94149.38;5015304;28;20026;-63
2023/08/04 10:13:20;;;;;;;2.45;1.00;;;;;;;16.72;100.00;94085.88;5015847;28;20021;-63
2023/08/04 10:15:47;;;;;;;0.80;0.80;;;;;;;16.45;100.00;94084.28;5014520;28;20025;-63
2023/08/04 10:18:12;;;;;;;1.02;1.02;;;;;;;16.25;100.00;94150.00;5014281;28;20482;-63
2023/08/04 10:20:38;;;;;;;1.23;1.00;;;;;;;16.13;100.00;94184.41;5015895;28;20033;-63
2023/08/04 10:23:03;;;;;;;0.80;0.80;;;;;;;16.08;100.00;94219.53;5015352;28;20064;-63
2023/08/04 10:25:29;;;;;;;1.92;1.05;;;;;;;16.20;100.00;94312.59;5015457;28;20053;-63
2023/08/04 10:27:54;;;;;;;2.88;0.90;;;;;;;16.35;100.00;94333.56;5013924;28;20045;-62
2023/08/04 10:30:20;;;;;;;2.92;0.70;;;;;;;16.39;100.00;94324.19;5015335;28;20457;-63
2023/08/04 10:32:47;;;;;;;1.52;0.75;;;;;;;16.42;100.00;94294.53;5020095;28;20119;-63
2023/08/04 10:35:18;;;;;;;0.80;0.80;;;;;;;16.59;100.00;94272.78;5020248;28;20688;-63
2023/08/04 10:37:58;;;;;;;2.15;0.93;;;;;;;16.80;100.00;94244.22;5003403;28;20029;-63
2023/08/04 10:40:28;;;;;;;1.10;1.00;;;;;;;16.98;100.00;94191.13;5014234;28;20655;-63
2023/08/04 10:43:04;;;;;;;0.70;0.70;;;;;;;17.43;100.00;94045.63;5015207;28;20033;-63
2023/08/04 10:46:02;;;;;;;4.45;1.02;;;;;;;18.13;100.00;93910.28;5015024;28;20034;-63
2023/08/04 10:48:28;;;;;;;1.02;0.93;;;;;;;18.79;100.00;93784.75;5015295;28;20036;-63
2023/08/04 10:50:54;;;;;;;1.73;0.80;;;;;;;19.02;100.00;93783.03;5014421;28;20559;-63
2023/08/04 10:53:20;;;;;;;1.52;1.13;;;;;;;19.11;100.00;93730.09;5014815;28;20037;-64
2023/08/04 10:55:55;;;;;;;0.73;0.73;;;;;;;19.46;100.00;93745.81;4993793;28;20017;-63
2023/08/04 10:58:21;;;;;;;0.60;0.60;;;;;;;19.27;100.00;93800.50;5008911;28;20029;-63
2023/08/04 11:00:47;;;;;;;0.68;0.50;;;;;;;18.98;100.00;93872.53;5015180;28;20021;-63
2023/08/04 11:03:27;;;;;;;0.40;0.40;;;;;;;18.71;100.00;93863.22;5015098;28;20018;-63
2023/08/04 11:05:53;;;;;;;0.65;0.50;;;;;;;18.47;100.00;93875.84;5015206;28;20586;-63
2023/08/04 11:08:20;;;;;;;0.40;0.40;;;;;;;18.21;100.00;93960.50;5014740;28;20025;-63
2023/08/04 11:10:47;;;;;;;0.47;0.47;;;;;;;17.97;100.00;93979.09;5014935;28;20034;-63
2023/08/04 11:13:12;;;;;;;0.77;0.50;;;;;;;17.74;100.00;94007.31;5014680;28;20025;-63
2023/08/04 11:15:42;;;;;;;0.50;0.50;;;;;;;17.67;100.00;94033.22;5014829;28;20034;-63
2023/08/04 11:18:34;;;;;;;0.63;0.63;;;;;;;17.71;100.00;94049.56;5014726;28;20807;-63
2023/08/04 11:21:03;;;;;;;0.93;0.60;;;;;;;17.70;100.00;93992.84;5013245;28;20252;-63